Ozette, Washington
Current Conditions -  °F | °C
As of 9:53 PM on Tuesday 21 Oct 2014 (Local Time) from KUIL Reporting Station
Light Rain Light Rain  
Wind Chill: 55°   Ceiling: 1200
Heat Index: 55°   Visibility: 2.5mi
Dew Point: 54°   Wind: 16mph
Humidity: 96%   Direction: 170°S
Pressure: 29.59"   Gusts: 41mph
Location:  48.1788°N, 124.127°W
Report Text: KUIL 220453Z AUTO 17014G36KT 130V200 2 1/2SM -RA BR FEW008 BKN012 OVC020 13/12 A2959 RMK AO2 PK WND 14038/0442 SLP018 P0019 T01280122
Loading
Personal Weather Stations






























Interactive Weather Map
Tropical Storm Tracking
New forecast layout! Learn more

10-Day Weather Forecast

Advertisements
Track Severe Weather on mobile